Time;durP1;ratioP1;P1;durP2;ratioP2;P2;SDS_P1;SDS_P2;PMS_P1;PMS_P2;Temp;Humidity;BMP_temperature;BMP_pressure;BME280_temperature;BME280_humidity;BME280_pressure;Samples;Min_cycle;Max_cycle;Signal;HPM_P1;HPM_P2
2019/09/05 00:00:32;;;;;;;6.5;6;;;;;;;14.44;95.5293;95117.35;;;;
2019/09/05 00:01:35;;;;;;;6.5;6;;;;;;;14.44;95.5293;95117.35;;;;
2019/09/05 00:02:36;;;;;;;6.5;6;;;;;;;14.44;95.5293;95117.35;;;;
2019/09/05 00:03:37;;;;;;;6.3;5.45;;;;;;;14.39;95.77637;95113.64;;;;
2019/09/05 00:04:39;;;;;;;6.3;5.45;;;;;;;14.39;95.77637;95113.64;;;;
2019/09/05 00:05:40;;;;;;;6.95;5.750001;;;;;;;14.36;95.83105;95121.09;;;;
2019/09/05 00:06:41;;;;;;;6.95;5.750001;;;;;;;14.36;95.83105;95121.09;;;;
2019/09/05 00:07:43;;;;;;;6.95;5.750001;;;;;;;14.36;95.83105;95121.09;;;;
2019/09/05 00:08:44;;;;;;;6.249999;5.65;;;;;;;14.31;96.01367;95116.04;;;;
2019/09/05 00:09:45;;;;;;;6.249999;5.65;;;;;;;14.31;96.01367;95116.04;;;;
2019/09/05 00:10:46;;;;;;;6.55;5.95;;;;;;;14.27;96.04883;95112.2;;;;
2019/09/05 00:11:48;;;;;;;6.55;5.95;;;;;;;14.27;96.04883;95112.2;;;;
2019/09/05 00:12:49;;;;;;;6.55;5.95;;;;;;;14.27;96.04883;95112.2;;;;
2019/09/05 00:13:50;;;;;;;6.65;5.95;;;;;;;14.23;96.27637;95112.45;;;;
2019/09/05 00:14:51;;;;;;;6.65;5.95;;;;;;;14.23;96.27637;95112.45;;;;
2019/09/05 00:15:52;;;;;;;6.5;5.9;;;;;;;14.19;96.34277;95108.61;;;;
2019/09/05 00:16:55;;;;;;;6.5;5.9;;;;;;;14.19;96.34277;95108.61;;;;
2019/09/05 00:17:56;;;;;;;6.5;5.9;;;;;;;14.19;96.34277;95108.61;;;;
2019/09/05 00:18:57;;;;;;;5.95;5.45;;;;;;;14.15;96.53809;95113.34;;;;
2019/09/05 00:19:59;;;;;;;5.95;5.45;;;;;;;14.15;96.53809;95113.34;;;;
2019/09/05 00:21:00;;;;;;;5.95;5.45;;;;;;;14.15;96.53809;95113.34;;;;
2019/09/05 00:22:01;;;;;;;6.45;5.849999;;;;;;;14.12;96.59473;95103.96;;;;
2019/09/05 00:23:02;;;;;;;6.45;5.849999;;;;;;;14.12;96.59473;95103.96;;;;
2019/09/05 00:24:04;;;;;;;6.4;5.8;;;;;;;14.07;96.81934;95107.44;;;;
2019/09/05 00:25:05;;;;;;;6.4;5.8;;;;;;;14.07;96.81934;95107.44;;;;
2019/09/05 00:26:07;;;;;;;6.4;5.8;;;;;;;14.07;96.81934;95107.44;;;;
2019/09/05 00:27:08;;;;;;;7.15;6.15;;;;;;;14.04;96.94043;95109.86;;;;
2019/09/05 00:28:09;;;;;;;7.15;6.15;;;;;;;14.04;96.94043;95109.86;;;;
2019/09/05 00:29:10;;;;;;;6.550001;5.95;;;;;;;14;97.23145;95106.03;;;;
2019/09/05 00:30:11;;;;;;;6.550001;5.95;;;;;;;14;97.23145;95106.03;;;;
2019/09/05 00:31:13;;;;;;;6.550001;5.95;;;;;;;14;97.23145;95106.03;;;;
2019/09/05 00:32:14;;;;;;;6.849999;6.25;;;;;;;13.98;97.3457;95108.59;;;;
2019/09/05 00:33:16;;;;;;;6.849999;6.25;;;;;;;13.98;97.3457;95108.59;;;;
2019/09/05 00:34:17;;;;;;;6.849999;6.25;;;;;;;13.98;97.3457;95108.59;;;;
2019/09/05 00:35:18;;;;;;;6.199999;5.699999;;;;;;;13.96;97.55762;95109.8;;;;
2019/09/05 00:36:20;;;;;;;6.199999;5.699999;;;;;;;13.96;97.55762;95109.8;;;;
2019/09/05 00:37:21;;;;;;;6.199999;5.649999;;;;;;;13.96;97.69629;95108.86;;;;
2019/09/05 00:38:23;;;;;;;6.199999;5.649999;;;;;;;13.96;97.69629;95108.86;;;;
2019/09/05 00:39:24;;;;;;;6.199999;5.649999;;;;;;;13.96;97.69629;95108.86;;;;
2019/09/05 00:40:25;;;;;;;6.05;5.550001;;;;;;;13.95;97.90918;95103.17;;;;
2019/09/05 00:41:27;;;;;;;6.05;5.550001;;;;;;;13.95;97.90918;95103.17;;;;
2019/09/05 00:42:29;;;;;;;6.649999;5.75;;;;;;;13.95;97.9707;95099.63;;;;
2019/09/05 00:43:30;;;;;;;6.649999;5.75;;;;;;;13.95;97.9707;95099.63;;;;
2019/09/05 00:44:31;;;;;;;6.649999;5.75;;;;;;;13.95;97.9707;95099.63;;;;
2019/09/05 00:45:32;;;;;;;5.750001;5.25;;;;;;;13.95;98.1875;95101.81;;;;
2019/09/05 00:46:35;;;;;;;5.750001;5.25;;;;;;;13.95;98.1875;95101.81;;;;
2019/09/05 00:47:36;;;;;;;6.1;5.6;;;;;;;13.98;98.29883;95094.61;;;;
2019/09/05 00:48:37;;;;;;;6.1;5.6;;;;;;;13.98;98.29883;95094.61;;;;
2019/09/05 00:49:38;;;;;;;6.1;5.6;;;;;;;13.98;98.29883;95094.61;;;;
2019/09/05 00:50:39;;;;;;;6.550001;5.65;;;;;;;13.99;98.58105;95098.86;;;;
2019/09/05 00:51:41;;;;;;;6.550001;5.65;;;;;;;13.99;98.58105;95098.86;;;;
2019/09/05 00:52:42;;;;;;;6.550001;5.65;;;;;;;13.99;98.58105;95098.86;;;;
2019/09/05 00:53:43;;;;;;;6.550001;6.050001;;;;;;;14.02;98.64941;95094.37;;;;
2019/09/05 00:54:44;;;;;;;6.550001;6.050001;;;;;;;14.02;98.64941;95094.37;;;;
2019/09/05 00:55:45;;;;;;;6.5;5.9;;;;;;;14.03;98.79297;95093.31;;;;
2019/09/05 00:56:47;;;;;;;6.5;5.9;;;;;;;14.03;98.79297;95093.31;;;;
2019/09/05 00:57:48;;;;;;;6.5;5.9;;;;;;;14.03;98.79297;95093.31;;;;
2019/09/05 00:58:49;;;;;;;6.35;5.85;;;;;;;14.04;98.83594;95091.27;;;;
2019/09/05 00:59:50;;;;;;;6.35;5.85;;;;;;;14.04;98.83594;95091.27;;;;
2019/09/05 01:00:51;;;;;;;6.5;5.900001;;;;;;;14.03;98.98535;95094.51;;;;
2019/09/05 01:01:53;;;;;;;6.5;5.900001;;;;;;;14.03;98.98535;95094.51;;;;
2019/09/05 01:02:54;;;;;;;6.5;5.900001;;;;;;;14.03;98.98535;95094.51;;;;
2019/09/05 01:03:55;;;;;;;7.2;6.1;;;;;;;14.04;98.9873;95094.4;;;;
2019/09/05 01:04:56;;;;;;;7.2;6.1;;;;;;;14.04;98.9873;95094.4;;;;
2019/09/05 01:05:58;;;;;;;7.2;6.1;;;;;;;14.04;98.9873;95094.4;;;;
2019/09/05 01:06:59;;;;;;;6.65;6.050001;;;;;;;14.05;99.25781;95100.66;;;;
2019/09/05 01:08:00;;;;;;;6.65;6.050001;;;;;;;14.05;99.25781;95100.66;;;;
2019/09/05 01:09:03;;;;;;;6.3;5.699999;;;;;;;14.06;99.31348;95096.84;;;;
2019/09/05 01:10:04;;;;;;;6.3;5.699999;;;;;;;14.06;99.31348;95096.84;;;;
2019/09/05 01:11:06;;;;;;;6.3;5.699999;;;;;;;14.06;99.31348;95096.84;;;;
2019/09/05 01:12:07;;;;;;;6.65;5.849999;;;;;;;14.07;99.33887;95095.64;;;;
2019/09/05 01:13:09;;;;;;;6.65;5.849999;;;;;;;14.07;99.33887;95095.64;;;;
2019/09/05 01:14:10;;;;;;;6.4;5.8;;;;;;;14.08;99.25293;95095.9;;;;
2019/09/05 01:15:11;;;;;;;6.4;5.8;;;;;;;14.08;99.25293;95095.9;;;;
2019/09/05 01:16:15;;;;;;;6.4;5.8;;;;;;;14.08;99.25293;95095.9;;;;
2019/09/05 01:17:16;;;;;;;6.299999;5.799999;;;;;;;14.09;99.31934;95097.67;;;;
2019/09/05 01:18:17;;;;;;;6.299999;5.799999;;;;;;;14.09;99.31934;95097.67;;;;
2019/09/05 01:19:19;;;;;;;6.45;5.850001;;;;;;;14.07;99.24219;95097;;;;
2019/09/05 01:20:20;;;;;;;6.45;5.850001;;;;;;;14.07;99.24219;95097;;;;
2019/09/05 01:21:22;;;;;;;6.45;5.850001;;;;;;;14.07;99.24219;95097;;;;
2019/09/05 01:22:23;;;;;;;6.6;5.95;;;;;;;14.06;99.37695;95100.8;;;;
2019/09/05 01:23:25;;;;;;;6.6;5.95;;;;;;;14.06;99.37695;95100.8;;;;
2019/09/05 01:24:26;;;;;;;6.6;5.95;;;;;;;14.06;99.37695;95100.8;;;;
2019/09/05 01:25:28;;;;;;;6.5;6;;;;;;;14.05;99.36426;95099.68;;;;
2019/09/05 01:26:30;;;;;;;6.5;6;;;;;;;14.05;99.36426;95099.68;;;;
2019/09/05 01:27:31;;;;;;;7.05;6.45;;;;;;;14.04;99.47852;95104.85;;;;
2019/09/05 01:28:32;;;;;;;7.05;6.45;;;;;;;14.04;99.47852;95104.85;;;;
2019/09/05 01:29:34;;;;;;;7.05;6.45;;;;;;;14.04;99.47852;95104.85;;;;
2019/09/05 01:30:35;;;;;;;6.300001;5.699999;;;;;;;14.03;99.60645;95102.25;;;;
2019/09/05 01:31:37;;;;;;;6.300001;5.699999;;;;;;;14.03;99.60645;95102.25;;;;
2019/09/05 01:32:39;;;;;;;6.5;5.900001;;;;;;;14.02;99.67676;95103.88;;;;
2019/09/05 01:33:40;;;;;;;6.5;5.900001;;;;;;;14.02;99.67676;95103.88;;;;
2019/09/05 01:34:41;;;;;;;6.5;5.900001;;;;;;;14.02;99.67676;95103.88;;;;
2019/09/05 01:35:42;;;;;;;6.4;5.749999;;;;;;;14;99.71777;95097.35;;;;
2019/09/05 01:36:43;;;;;;;6.4;5.749999;;;;;;;14;99.71777;95097.35;;;;
2019/09/05 01:37:45;;;;;;;6.649999;6.05;;;;;;;13.98;99.90625;95099.51;;;;
2019/09/05 01:38:46;;;;;;;6.649999;6.05;;;;;;;13.98;99.90625;95099.51;;;;
2019/09/05 01:39:47;;;;;;;6.649999;6.05;;;;;;;13.98;99.90625;95099.51;;;;
2019/09/05 01:40:48;;;;;;;6.400001;5.800001;;;;;;;13.97;99.9873;95104.67;;;;
2019/09/05 01:41:49;;;;;;;6.400001;5.800001;;;;;;;13.97;99.9873;95104.67;;;;
2019/09/05 01:42:51;;;;;;;6.400001;5.800001;;;;;;;13.97;99.9873;95104.67;;;;
2019/09/05 01:43:52;;;;;;;6.55;5.900001;;;;;;;13.96;100;95112.52;;;;
2019/09/05 01:44:53;;;;;;;6.55;5.900001;;;;;;;13.96;100;95112.52;;;;
2019/09/05 01:45:54;;;;;;;6.5;5.900001;;;;;;;13.96;100;95106.67;;;;
2019/09/05 01:46:56;;;;;;;6.5;5.900001;;;;;;;13.96;100;95106.67;;;;
2019/09/05 01:47:57;;;;;;;6.5;5.900001;;;;;;;13.96;100;95106.67;;;;
2019/09/05 01:48:58;;;;;;;6.299999;5.750001;;;;;;;13.95;100;95104.11;;;;
2019/09/05 01:49:59;;;;;;;6.299999;5.750001;;;;;;;13.95;100;95104.11;;;;
2019/09/05 01:51:01;;;;;;;6.15;5.65;;;;;;;13.96;100;95105.74;;;;
2019/09/05 01:52:02;;;;;;;6.15;5.65;;;;;;;13.96;100;95105.74;;;;
2019/09/05 01:53:04;;;;;;;6.15;5.65;;;;;;;13.96;100;95105.74;;;;
2019/09/05 01:54:06;;;;;;;6.699999;6.199999;;;;;;;13.98;100;95100.45;;;;
2019/09/05 01:55:07;;;;;;;6.699999;6.199999;;;;;;;13.98;100;95100.45;;;;
2019/09/05 01:56:09;;;;;;;6.699999;6.199999;;;;;;;13.98;100;95100.45;;;;
2019/09/05 01:57:11;;;;;;;6.6;6.1;;;;;;;14;100;95100.59;;;;
2019/09/05 01:58:12;;;;;;;6.6;6.1;;;;;;;14;100;95100.59;;;;
2019/09/05 01:59:13;;;;;;;6.55;6.05;;;;;;;14.01;100;95101.31;;;;
2019/09/05 02:00:14;;;;;;;6.55;6.05;;;;;;;14.01;100;95101.31;;;;
2019/09/05 02:01:16;;;;;;;6.55;6.05;;;;;;;14.01;100;95101.31;;;;
2019/09/05 02:02:17;;;;;;;6.35;5.750001;;;;;;;14.03;100;95106.73;;;;
2019/09/05 02:03:18;;;;;;;6.35;5.750001;;;;;;;14.03;100;95106.73;;;;
2019/09/05 02:04:20;;;;;;;6.7;6.1;;;;;;;14.03;100;95103.61;;;;
2019/09/05 02:05:21;;;;;;;6.7;6.1;;;;;;;14.03;100;95103.61;;;;
2019/09/05 02:06:25;;;;;;;6.7;6.1;;;;;;;14.03;100;95103.61;;;;
2019/09/05 02:07:26;;;;;;;6.300001;5.699998;;;;;;;14.04;100;95103.91;;;;
2019/09/05 02:08:27;;;;;;;6.300001;5.699998;;;;;;;14.04;100;95103.91;;;;
2019/09/05 02:09:28;;;;;;;6.4;5.8;;;;;;;14.03;100;95096.02;;;;
2019/09/05 02:10:29;;;;;;;6.4;5.8;;;;;;;14.03;100;95096.02;;;;
2019/09/05 02:11:31;;;;;;;6.4;5.8;;;;;;;14.03;100;95096.02;;;;
2019/09/05 02:12:32;;;;;;;6.55;5.95;;;;;;;14.02;100;95097.5;;;;
2019/09/05 02:13:33;;;;;;;6.55;5.95;;;;;;;14.02;100;95097.5;;;;
2019/09/05 02:14:34;;;;;;;6.55;5.95;;;;;;;14.02;100;95097.5;;;;
2019/09/05 02:15:36;;;;;;;6.699999;6.1;;;;;;;14;100;95099.13;;;;
2019/09/05 02:16:38;;;;;;;6.699999;6.1;;;;;;;14;100;95099.13;;;;
2019/09/05 02:17:39;;;;;;;6.699999;6.1;;;;;;;14;100;95099.13;;;;
2019/09/05 02:18:40;;;;;;;6.699999;6.1;;;;;;;14;100;95099.13;;;;
2019/09/05 02:19:42;;;;;;;6.699999;6.1;;;;;;;14;100;95099.13;;;;
2019/09/05 02:20:43;;;;;;;6.699999;6.1;;;;;;;14;100;95099.13;;;;
2019/09/05 02:21:44;;;;;;;6.699999;6.1;;;;;;;14;100;95099.13;;;;
2019/09/05 02:22:46;;;;;;;6.699999;6.1;;;;;;;14;100;95099.13;;;;
2019/09/05 02:23:47;;;;;;;6.699999;6.1;;;;;;;14;100;95099.13;;;;
2019/09/05 02:24:48;;;;;;;6.699999;6.1;;;;;;;14;100;95099.13;;;;
2019/09/05 02:25:49;;;;;;;6.849999;6.249999;;;;;;;13.6;99.62891;95100.17;;;;
2019/09/05 02:26:50;;;;;;;6.849999;6.249999;;;;;;;13.6;99.62891;95100.17;;;;
2019/09/05 02:27:51;;;;;;;6.849999;6.249999;;;;;;;13.6;99.62891;95100.17;;;;
2019/09/05 02:28:53;;;;;;;7.949999;6.3;;;;;;;13.57;100;95093.08;;;;
2019/09/05 02:29:54;;;;;;;7.949999;6.3;;;;;;;13.57;100;95093.08;;;;
2019/09/05 02:30:55;;;;;;;7;6.25;;;;;;;13.59;100;95099.91;;;;
2019/09/05 02:31:56;;;;;;;7;6.25;;;;;;;13.59;100;95099.91;;;;
2019/09/05 02:32:57;;;;;;;7;6.25;;;;;;;13.59;100;95099.91;;;;
2019/09/05 02:33:58;;;;;;;6.55;5.95;;;;;;;13.6;100;95099.38;;;;
2019/09/05 02:34:59;;;;;;;6.55;5.95;;;;;;;13.6;100;95099.38;;;;
2019/09/05 02:36:01;;;;;;;7.5;6.299999;;;;;;;13.61;100;95092.74;;;;
2019/09/05 02:37:02;;;;;;;7.5;6.299999;;;;;;;13.61;100;95092.74;;;;
2019/09/05 02:38:03;;;;;;;7.5;6.299999;;;;;;;13.61;100;95092.74;;;;
2019/09/05 02:39:05;;;;;;;7.3;6.4;;;;;;;13.61;100;95092.86;;;;
2019/09/05 02:40:06;;;;;;;7.3;6.4;;;;;;;13.61;100;95092.86;;;;
2019/09/05 02:41:09;;;;;;;7.3;6.4;;;;;;;13.61;100;95092.86;;;;
2019/09/05 02:42:10;;;;;;;7.3;6.4;;;;;;;13.61;100;95092.86;;;;
2019/09/05 02:43:11;;;;;;;7.3;6.4;;;;;;;13.61;100;95092.86;;;;
2019/09/05 02:44:12;;;;;;;7.3;6.4;;;;;;;13.61;100;95092.86;;;;
2019/09/05 02:45:13;;;;;;;7.3;6.4;;;;;;;13.61;100;95092.86;;;;
2019/09/05 02:46:16;;;;;;;7.3;6.4;;;;;;;13.61;100;95092.86;;;;
2019/09/05 02:47:17;;;;;;;7.3;6.4;;;;;;;13.61;100;95092.86;;;;
2019/09/05 02:48:18;;;;;;;7.3;6.4;;;;;;;13.61;100;95092.86;;;;
2019/09/05 02:49:19;;;;;;;7.05;6.349999;;;;;;;13.25;100;95092.27;;;;
2019/09/05 02:50:20;;;;;;;7.05;6.349999;;;;;;;13.25;100;95092.27;;;;
2019/09/05 02:51:24;;;;;;;7.05;6.349999;;;;;;;13.25;100;95092.27;;;;
2019/09/05 02:52:25;;;;;;;7.050001;6.349999;;;;;;;13.24;100;95091.05;;;;
2019/09/05 02:53:26;;;;;;;7.050001;6.349999;;;;;;;13.24;100;95091.05;;;;
2019/09/05 02:54:27;;;;;;;7.050001;6.349999;;;;;;;13.24;100;95091.05;;;;
2019/09/05 02:55:29;;;;;;;7.050001;6.349999;;;;;;;13.24;100;95091.05;;;;
2019/09/05 02:56:31;;;;;;;7.050001;6.349999;;;;;;;13.24;100;95091.05;;;;
2019/09/05 02:57:32;;;;;;;7.050001;6.349999;;;;;;;13.24;100;95091.05;;;;
2019/09/05 02:58:33;;;;;;;7.050001;6.349999;;;;;;;13.24;100;95091.05;;;;
2019/09/05 02:59:34;;;;;;;7.050001;6.349999;;;;;;;13.24;100;95091.05;;;;
2019/09/05 03:00:35;;;;;;;7.050001;6.349999;;;;;;;13.24;100;95091.05;;;;
2019/09/05 03:01:38;;;;;;;7.050001;6.349999;;;;;;;13.24;100;95091.05;;;;
2019/09/05 03:02:39;;;;;;;6.9;6.199999;;;;;;;13.07;100;95092.1;;;;
2019/09/05 03:03:40;;;;;;;6.9;6.199999;;;;;;;13.07;100;95092.1;;;;
2019/09/05 03:04:41;;;;;;;6.9;6.199999;;;;;;;13.07;100;95092.1;;;;
2019/09/05 03:05:42;;;;;;;7.05;6.349999;;;;;;;13.1;100;95092.92;;;;
2019/09/05 03:06:43;;;;;;;7.05;6.349999;;;;;;;13.1;100;95092.92;;;;
2019/09/05 03:07:45;;;;;;;7.05;6.349999;;;;;;;13.1;100;95092.92;;;;
2019/09/05 03:08:46;;;;;;;7.05;6.349999;;;;;;;13.1;100;95092.92;;;;
2019/09/05 03:09:47;;;;;;;7.05;6.349999;;;;;;;13.1;100;95092.92;;;;
2019/09/05 03:10:48;;;;;;;7.05;6.349999;;;;;;;13.1;100;95092.92;;;;
2019/09/05 03:11:49;;;;;;;7.05;6.349999;;;;;;;13.1;100;95092.92;;;;
2019/09/05 03:12:50;;;;;;;7.05;6.349999;;;;;;;13.1;100;95092.92;;;;
2019/09/05 03:13:51;;;;;;;7.05;6.349999;;;;;;;13.1;100;95092.92;;;;
2019/09/05 03:14:52;;;;;;;7.05;6.349999;;;;;;;13.1;100;95092.92;;;;
2019/09/05 03:15:54;;;;;;;7.299999;6.6;;;;;;;13.02;100;95083.88;;;;
2019/09/05 03:16:55;;;;;;;7.299999;6.6;;;;;;;13.02;100;95083.88;;;;
2019/09/05 03:17:56;;;;;;;7.299999;6.6;;;;;;;13.02;100;95083.88;;;;
2019/09/05 03:18:57;;;;;;;7.2;6.5;;;;;;;13.04;100;95081.22;;;;
2019/09/05 03:19:58;;;;;;;7.2;6.5;;;;;;;13.04;100;95081.22;;;;
2019/09/05 03:20:59;;;;;;;7.2;6.5;;;;;;;13.04;100;95081.22;;;;
2019/09/05 03:22:01;;;;;;;7.2;6.5;;;;;;;13.04;100;95081.22;;;;
2019/09/05 03:23:02;;;;;;;7.2;6.5;;;;;;;13.04;100;95081.22;;;;
2019/09/05 03:24:04;;;;;;;7.2;6.5;;;;;;;13.04;100;95081.22;;;;
2019/09/05 03:25:05;;;;;;;7.2;6.5;;;;;;;13.04;100;95081.22;;;;
2019/09/05 03:26:07;;;;;;;7.2;6.5;;;;;;;13.04;100;95081.22;;;;
2019/09/05 03:27:08;;;;;;;7.2;6.5;;;;;;;13.04;100;95081.22;;;;
2019/09/05 03:28:09;;;;;;;7.2;6.5;;;;;;;13.04;100;95081.22;;;;
2019/09/05 03:29:11;;;;;;;6.900001;6.299999;;;;;;;12.96;100;95088.55;;;;
2019/09/05 03:30:12;;;;;;;6.900001;6.299999;;;;;;;12.96;100;95088.55;;;;
2019/09/05 03:31:15;;;;;;;6.900001;6.299999;;;;;;;12.96;100;95088.55;;;;
2019/09/05 03:32:17;;;;;;;9.6;6.599999;;;;;;;13.02;100;95080.77;;;;
2019/09/05 03:33:18;;;;;;;9.6;6.599999;;;;;;;13.02;100;95080.77;;;;
2019/09/05 03:34:19;;;;;;;9.6;6.599999;;;;;;;13.02;100;95080.77;;;;
2019/09/05 03:35:20;;;;;;;9.6;6.599999;;;;;;;13.02;100;95080.77;;;;
2019/09/05 03:36:23;;;;;;;9.6;6.599999;;;;;;;13.02;100;95080.77;;;;
2019/09/05 03:37:24;;;;;;;9.6;6.599999;;;;;;;13.02;100;95080.77;;;;
2019/09/05 03:38:25;;;;;;;9.6;6.599999;;;;;;;13.02;100;95080.77;;;;
2019/09/05 03:39:27;;;;;;;9.6;6.599999;;;;;;;13.02;100;95080.77;;;;
2019/09/05 03:40:28;;;;;;;9.6;6.599999;;;;;;;13.02;100;95080.77;;;;
2019/09/05 03:41:29;;;;;;;9.6;6.599999;;;;;;;13.02;100;95080.77;;;;
2019/09/05 03:42:30;;;;;;;6.85;6.249999;;;;;;;13.05;100;95092.36;;;;
2019/09/05 03:43:31;;;;;;;6.85;6.249999;;;;;;;13.05;100;95092.36;;;;
2019/09/05 03:44:33;;;;;;;6.85;6.249999;;;;;;;13.05;100;95092.36;;;;
2019/09/05 03:45:34;;;;;;;6.95;6.3;;;;;;;13.11;100;95097.3;;;;
2019/09/05 03:46:36;;;;;;;6.95;6.3;;;;;;;13.11;100;95097.3;;;;
2019/09/05 03:47:37;;;;;;;6.95;6.3;;;;;;;13.11;100;95097.3;;;;
2019/09/05 03:48:38;;;;;;;6.95;6.3;;;;;;;13.11;100;95097.3;;;;
2019/09/05 03:49:39;;;;;;;6.95;6.3;;;;;;;13.11;100;95097.3;;;;
2019/09/05 03:50:40;;;;;;;6.95;6.3;;;;;;;13.11;100;95097.3;;;;
2019/09/05 03:51:46;;;;;;;6.95;6.3;;;;;;;13.11;100;95097.3;;;;
2019/09/05 03:52:47;;;;;;;6.95;6.3;;;;;;;13.11;100;95097.3;;;;
2019/09/05 03:53:48;;;;;;;6.95;6.3;;;;;;;13.11;100;95097.3;;;;
2019/09/05 03:54:49;;;;;;;6.95;6.3;;;;;;;13.11;100;95097.3;;;;
2019/09/05 03:55:50;;;;;;;7.3;6.699999;;;;;;;13.03;100;95105.45;;;;
2019/09/05 03:56:52;;;;;;;7.3;6.699999;;;;;;;13.03;100;95105.45;;;;
2019/09/05 03:57:53;;;;;;;7.3;6.699999;;;;;;;13.03;100;95105.45;;;;
2019/09/05 03:58:54;;;;;;;7;6.3;;;;;;;13.06;100;95105.35;;;;
2019/09/05 03:59:55;;;;;;;7;6.3;;;;;;;13.06;100;95105.35;;;;
2019/09/05 04:00:56;;;;;;;7;6.3;;;;;;;13.06;100;95105.35;;;;
2019/09/05 04:01:58;;;;;;;7;6.3;;;;;;;13.06;100;95105.35;;;;
2019/09/05 04:02:59;;;;;;;7;6.3;;;;;;;13.06;100;95105.35;;;;
2019/09/05 04:04:00;;;;;;;7;6.3;;;;;;;13.06;100;95105.35;;;;
2019/09/05 04:05:01;;;;;;;7;6.3;;;;;;;13.06;100;95105.35;;;;
2019/09/05 04:06:03;;;;;;;7;6.3;;;;;;;13.06;100;95105.35;;;;
2019/09/05 04:07:04;;;;;;;7;6.3;;;;;;;13.06;100;95105.35;;;;
2019/09/05 04:08:05;;;;;;;7;6.3;;;;;;;13.06;100;95105.35;;;;
2019/09/05 04:09:07;;;;;;;8.150002;6.6;;;;;;;12.98;100;95117.58;;;;
2019/09/05 04:10:08;;;;;;;8.150002;6.6;;;;;;;12.98;100;95117.58;;;;
2019/09/05 04:11:10;;;;;;;7.8;7.000001;;;;;;;13.01;100;95119.76;;;;
2019/09/05 04:12:11;;;;;;;7.8;7.000001;;;;;;;13.01;100;95119.76;;;;
2019/09/05 04:13:12;;;;;;;7.8;7.000001;;;;;;;13.01;100;95119.76;;;;
2019/09/05 04:14:13;;;;;;;7.8;7.000001;;;;;;;13.01;100;95119.76;;;;
2019/09/05 04:15:14;;;;;;;7.8;7.000001;;;;;;;13.01;100;95119.76;;;;
2019/09/05 04:16:21;;;;;;;7.8;7.000001;;;;;;;13.01;100;95119.76;;;;
2019/09/05 04:17:22;;;;;;;7.8;7.000001;;;;;;;13.01;100;95119.76;;;;
2019/09/05 04:18:23;;;;;;;7.8;7.000001;;;;;;;13.01;100;95119.76;;;;
2019/09/05 04:19:24;;;;;;;7.8;7.000001;;;;;;;13.01;100;95119.76;;;;
2019/09/05 04:20:25;;;;;;;7.8;7.000001;;;;;;;13.01;100;95119.76;;;;
2019/09/05 04:21:29;;;;;;;7.8;7.000001;;;;;;;13.01;100;95119.76;;;;
2019/09/05 04:22:30;;;;;;;7.249999;6.550001;;;;;;;12.95;100;95128.93;;;;
2019/09/05 04:23:31;;;;;;;7.249999;6.550001;;;;;;;12.95;100;95128.93;;;;
2019/09/05 04:24:32;;;;;;;7.900001;7.1;;;;;;;13;100;95128.99;;;;
2019/09/05 04:25:33;;;;;;;7.900001;7.1;;;;;;;13;100;95128.99;;;;
2019/09/05 04:26:36;;;;;;;7.900001;7.1;;;;;;;13;100;95128.99;;;;
2019/09/05 04:27:37;;;;;;;7.900001;7.1;;;;;;;13;100;95128.99;;;;
2019/09/05 04:28:38;;;;;;;7.900001;7.1;;;;;;;13;100;95128.99;;;;
2019/09/05 04:29:39;;;;;;;7.900001;7.1;;;;;;;13;100;95128.99;;;;
2019/09/05 04:30:41;;;;;;;7.900001;7.1;;;;;;;13;100;95128.99;;;;
2019/09/05 04:31:44;;;;;;;7.900001;7.1;;;;;;;13;100;95128.99;;;;
2019/09/05 04:32:45;;;;;;;7.900001;7.1;;;;;;;13;100;95128.99;;;;
2019/09/05 04:33:46;;;;;;;7.900001;7.1;;;;;;;13;100;95128.99;;;;
2019/09/05 04:34:47;;;;;;;7.900001;7.1;;;;;;;13;100;95128.99;;;;
2019/09/05 04:35:49;;;;;;;7.6;6.55;;;;;;;13.07;100;95125.03;;;;
2019/09/05 04:36:50;;;;;;;7.6;6.55;;;;;;;13.07;100;95125.03;;;;
2019/09/05 04:37:51;;;;;;;9.45;6.5;;;;;;;13.16;100;95128.92;;;;
2019/09/05 04:38:53;;;;;;;9.45;6.5;;;;;;;13.16;100;95128.92;;;;
2019/09/05 04:39:54;;;;;;;9.45;6.5;;;;;;;13.16;100;95128.92;;;;
2019/09/05 04:40:55;;;;;;;9.45;6.5;;;;;;;13.16;100;95128.92;;;;
2019/09/05 04:41:56;;;;;;;9.45;6.5;;;;;;;13.16;100;95128.92;;;;
2019/09/05 04:42:57;;;;;;;9.45;6.5;;;;;;;13.16;100;95128.92;;;;
2019/09/05 04:43:58;;;;;;;9.45;6.5;;;;;;;13.16;100;95128.92;;;;
2019/09/05 04:45:00;;;;;;;9.45;6.5;;;;;;;13.16;100;95128.92;;;;
2019/09/05 04:46:01;;;;;;;9.45;6.5;;;;;;;13.16;100;95128.92;;;;
2019/09/05 04:47:02;;;;;;;9.45;6.5;;;;;;;13.16;100;95128.92;;;;
2019/09/05 04:48:03;;;;;;;9.45;6.5;;;;;;;13.16;100;95128.92;;;;
2019/09/05 04:49:05;;;;;;;6.8;6.05;;;;;;;13.35;100;95142.39;;;;
2019/09/05 04:50:06;;;;;;;6.8;6.05;;;;;;;13.35;100;95142.39;;;;
2019/09/05 04:51:08;;;;;;;6.55;5.749999;;;;;;;13.47;100;95150.39;;;;
2019/09/05 04:52:09;;;;;;;6.55;5.749999;;;;;;;13.47;100;95150.39;;;;
2019/09/05 04:53:10;;;;;;;6.55;5.749999;;;;;;;13.47;100;95150.39;;;;
2019/09/05 04:54:12;;;;;;;6.55;5.749999;;;;;;;13.47;100;95150.39;;;;
2019/09/05 04:55:13;;;;;;;6.55;5.749999;;;;;;;13.47;100;95150.39;;;;
2019/09/05 04:56:17;;;;;;;6.55;5.749999;;;;;;;13.47;100;95150.39;;;;
2019/09/05 04:57:18;;;;;;;6.55;5.749999;;;;;;;13.47;100;95150.39;;;;
2019/09/05 04:58:19;;;;;;;6.55;5.749999;;;;;;;13.47;100;95150.39;;;;
2019/09/05 04:59:20;;;;;;;6.55;5.749999;;;;;;;13.47;100;95150.39;;;;
2019/09/05 05:00:21;;;;;;;6.55;5.749999;;;;;;;13.47;100;95150.39;;;;
2019/09/05 05:01:24;;;;;;;6.55;5.749999;;;;;;;13.47;100;95150.39;;;;
2019/09/05 05:02:25;;;;;;;8.749999;5.6;;;;;;;13.75;100;95149.14;;;;
2019/09/05 05:03:26;;;;;;;8.749999;5.6;;;;;;;13.75;100;95149.14;;;;
2019/09/05 05:04:27;;;;;;;8.749999;5.6;;;;;;;13.75;100;95149.14;;;;
2019/09/05 05:05:28;;;;;;;8.749999;5.6;;;;;;;13.75;100;95149.14;;;;
2019/09/05 05:06:31;;;;;;;8.749999;5.6;;;;;;;13.75;100;95149.14;;;;
2019/09/05 05:07:32;;;;;;;8.749999;5.6;;;;;;;13.75;100;95149.14;;;;
2019/09/05 05:08:33;;;;;;;8.749999;5.6;;;;;;;13.75;100;95149.14;;;;
2019/09/05 05:09:34;;;;;;;8.749999;5.6;;;;;;;13.75;100;95149.14;;;;
2019/09/05 05:10:35;;;;;;;8.749999;5.6;;;;;;;13.75;100;95149.14;;;;
2019/09/05 05:11:37;;;;;;;8.749999;5.6;;;;;;;13.75;100;95149.14;;;;
2019/09/05 05:12:38;;;;;;;6.3;4.85;;;;;;;14.07;99.64941;95159.44;;;;
2019/09/05 05:13:39;;;;;;;6.3;4.85;;;;;;;14.07;99.64941;95159.44;;;;
2019/09/05 05:14:40;;;;;;;6.3;4.85;;;;;;;14.07;99.64941;95159.44;;;;
2019/09/05 05:15:41;;;;;;;6.3;4.85;;;;;;;14.07;99.64941;95159.44;;;;
2019/09/05 05:16:43;;;;;;;6.3;4.85;;;;;;;14.07;99.64941;95159.44;;;;
2019/09/05 05:17:44;;;;;;;6.3;4.85;;;;;;;14.07;99.64941;95159.44;;;;
2019/09/05 05:18:45;;;;;;;6.3;4.85;;;;;;;14.07;99.64941;95159.44;;;;
2019/09/05 05:19:46;;;;;;;6.3;4.85;;;;;;;14.07;99.64941;95159.44;;;;
2019/09/05 05:20:47;;;;;;;6.3;4.85;;;;;;;14.07;99.64941;95159.44;;;;
2019/09/05 05:21:49;;;;;;;6.3;4.85;;;;;;;14.07;99.64941;95159.44;;;;
2019/09/05 05:22:50;;;;;;;8.299998;4.3;;;;;;;14.39;98.67969;95165.81;;;;
2019/09/05 05:23:51;;;;;;;8.299998;4.3;;;;;;;14.39;98.67969;95165.81;;;;
2019/09/05 05:24:52;;;;;;;8.299998;4.3;;;;;;;14.39;98.67969;95165.81;;;;
2019/09/05 05:25:53;;;;;;;6.899999;4.45;;;;;;;14.52;98.3125;95161.66;;;;
2019/09/05 05:26:54;;;;;;;6.899999;4.45;;;;;;;14.52;98.3125;95161.66;;;;
2019/09/05 05:27:55;;;;;;;6.899999;4.45;;;;;;;14.52;98.3125;95161.66;;;;
2019/09/05 05:28:56;;;;;;;6.899999;4.45;;;;;;;14.52;98.3125;95161.66;;;;
2019/09/05 05:29:58;;;;;;;6.899999;4.45;;;;;;;14.52;98.3125;95161.66;;;;
2019/09/05 05:30:59;;;;;;;6.899999;4.45;;;;;;;14.52;98.3125;95161.66;;;;
2019/09/05 05:32:00;;;;;;;6.899999;4.45;;;;;;;14.52;98.3125;95161.66;;;;
2019/09/05 05:33:01;;;;;;;6.899999;4.45;;;;;;;14.52;98.3125;95161.66;;;;
2019/09/05 05:34:02;;;;;;;6.899999;4.45;;;;;;;14.52;98.3125;95161.66;;;;
2019/09/05 05:35:04;;;;;;;6.899999;4.45;;;;;;;14.52;98.3125;95161.66;;;;
2019/09/05 05:36:05;;;;;;;7.35;4.5;;;;;;;14.86;96.82129;95175.16;;;;
2019/09/05 05:37:06;;;;;;;7.35;4.5;;;;;;;14.86;96.82129;95175.16;;;;
2019/09/05 05:38:07;;;;;;;7.35;4.5;;;;;;;14.86;96.82129;95175.16;;;;
2019/09/05 05:39:09;;;;;;;7.35;4.5;;;;;;;14.86;96.82129;95175.16;;;;
2019/09/05 05:40:10;;;;;;;7.35;4.5;;;;;;;14.86;96.82129;95175.16;;;;
2019/09/05 05:41:14;;;;;;;7.35;4.5;;;;;;;14.86;96.82129;95175.16;;;;
2019/09/05 05:42:15;;;;;;;7.35;4.5;;;;;;;14.86;96.82129;95175.16;;;;
2019/09/05 05:43:16;;;;;;;7.35;4.5;;;;;;;14.86;96.82129;95175.16;;;;
2019/09/05 05:44:17;;;;;;;7.35;4.5;;;;;;;14.86;96.82129;95175.16;;;;
2019/09/05 05:45:18;;;;;;;7.35;4.5;;;;;;;14.86;96.82129;95175.16;;;;
2019/09/05 05:48:20;;;;;;;8.25;4.5;;;;;;;15.36;95.62793;95185.97;;;;
2019/09/05 05:49:22;;;;;;;8.25;4.5;;;;;;;15.36;95.62793;95185.97;;;;
2019/09/05 05:50:23;;;;;;;8.25;4.5;;;;;;;15.36;95.62793;95185.97;;;;
2019/09/05 05:51:27;;;;;;;8.25;4.5;;;;;;;15.36;95.62793;95185.97;;;;
2019/09/05 05:52:28;;;;;;;8.25;4.5;;;;;;;15.36;95.62793;95185.97;;;;
2019/09/05 05:53:29;;;;;;;8.25;4.5;;;;;;;15.36;95.62793;95185.97;;;;
2019/09/05 05:54:30;;;;;;;8.25;4.5;;;;;;;15.36;95.62793;95185.97;;;;
2019/09/05 05:55:31;;;;;;;8.25;4.5;;;;;;;15.36;95.62793;95185.97;;;;
2019/09/05 05:56:33;;;;;;;8.25;4.5;;;;;;;15.36;95.62793;95185.97;;;;